Time;durP1;ratioP1;P1;durP2;ratioP2;P2;SDS_P1;SDS_P2;PMS_P1;PMS_P2;Temp;Humidity;BMP_temperature;BMP_pressure;BME280_temperature;BME280_humidity;BME280_pressure;Samples;Min_cycle;Max_cycle;Signal;HPM_P1;HPM_P2
2021/12/17 00:00:25;;;;;;;11.60;3.67;;;26.30;96.40;;;;;;5012449;28;20852;-69
2021/12/17 00:05:42;;;;;;;9.13;4.68;;;26.00;97.20;;;;;;5013098;28;20029;-74
2021/12/17 00:08:10;;;;;;;12.65;3.60;;;26.00;97.30;;;;;;5014760;28;20023;-68
2021/12/17 00:10:37;;;;;;;14.32;5.47;;;25.90;98.00;;;;;;5012162;28;20046;-74
2021/12/17 00:13:05;;;;;;;8.68;3.65;;;25.80;98.10;;;;;;5012296;28;20490;-67
2021/12/17 00:15:32;;;;;;;7.30;3.40;;;26.10;97.30;;;;;;5011077;28;20032;-70
2021/12/17 00:18:07;;;;;;;7.82;2.63;;;26.20;97.30;;;;;;5009687;28;20027;-71
2021/12/17 00:20:59;;;;;;;11.63;3.47;;;26.50;96.80;;;;;;5007066;28;20382;-69
2021/12/17 00:51:09;;;;;;;9.60;3.25;;;27.00;96.30;;;;;;5008275;28;20199;-66
2021/12/17 00:53:28;;;;;;;6.80;3.28;;;26.80;95.90;;;;;;5011917;28;20118;-70
2021/12/17 00:55:55;;;;;;;9.07;3.05;;;27.00;95.60;;;;;;5013292;28;20019;-71
2021/12/17 00:58:22;;;;;;;7.60;4.60;;;27.20;95.60;;;;;;5011412;28;20570;-77
2021/12/17 01:00:52;;;;;;;10.05;4.30;;;27.60;95.40;;;;;;5011846;28;20032;-70
2021/12/17 01:03:19;;;;;;;13.00;3.97;;;27.50;95.20;;;;;;5011970;28;20023;-76
2021/12/17 01:05:46;;;;;;;6.32;3.78;;;27.70;94.90;;;;;;5027556;28;20430;-67
2021/12/17 01:08:13;;;;;;;11.43;5.80;;;27.80;94.60;;;;;;5010406;28;20025;-70
2021/12/17 01:10:51;;;;;;;7.35;3.30;;;27.90;93.60;;;;;;5014204;28;20019;-70
2021/12/17 01:13:18;;;;;;;9.27;3.10;;;27.80;94.30;;;;;;5014332;28;20108;-71
2021/12/17 01:15:45;;;;;;;9.68;2.70;;;27.90;94.00;;;;;;5009731;28;20117;-66
2021/12/17 01:18:18;;;;;;;6.40;2.85;;;28.00;93.40;;;;;;5012103;28;20552;-70
2021/12/17 01:24:02;;;;;;;7.65;3.63;;;28.10;93.10;;;;;;5010881;28;20029;-75
2021/12/17 01:42:32;;;;;;;9.07;3.05;;;28.60;91.10;;;;;;5013252;28;20046;-70
2021/12/17 01:44:59;;;;;;;7.68;2.70;;;28.70;91.10;;;;;;5009618;28;20754;-74
2021/12/17 01:47:26;;;;;;;6.03;3.10;;;28.90;91.00;;;;;;5010015;28;20381;-69
2021/12/17 02:00:55;;;;;;;6.20;2.60;;;29.00;90.60;;;;;;5009589;28;20537;-67
2021/12/17 02:03:23;;;;;;;6.60;2.28;;;29.10;91.00;;;;;;5009769;28;20388;-75
2021/12/17 02:05:50;;;;;;;6.85;3.08;;;29.40;91.80;;;;;;5005637;28;20016;-74
2021/12/17 02:08:17;;;;;;;8.48;2.60;;;30.10;91.20;;;;;;5009227;28;20018;-69
2021/12/17 02:32:01;;;;;;;9.75;6.35;;;30.60;83.50;;;;;;5009149;28;20027;-75
2021/12/17 02:37:28;;;;;;;8.20;2.55;;;31.80;80.70;;;;;;5008387;28;20246;-75
2021/12/17 02:47:35;;;;;;;7.53;3.20;;;32.40;82.30;;;;;;5008629;28;20038;-68
2021/12/17 02:50:02;;;;;;;7.15;2.70;;;32.00;79.60;;;;;;5005336;28;20602;-66
2021/12/17 02:52:31;;;;;;;8.43;2.70;;;31.40;79.80;;;;;;5007290;28;20138;-66
2021/12/17 02:55:00;;;;;;;9.25;3.63;;;30.80;81.30;;;;;;5004593;28;20041;-74
2021/12/17 02:57:27;;;;;;;11.20;2.85;;;30.60;80.10;;;;;;5003733;28;20030;-69
2021/12/17 02:59:55;;;;;;;6.25;2.85;;;30.30;81.70;;;;;;5005112;28;20039;-76
2021/12/17 03:02:26;;;;;;;5.03;2.50;;;30.60;84.10;;;;;;5007813;28;20352;-69
2021/12/17 03:04:53;;;;;;;5.78;3.17;;;31.80;81.60;;;;;;5004477;28;20035;-75
2021/12/17 03:07:21;;;;;;;6.72;2.70;;;32.70;79.30;;;;;;5005510;28;20023;-67
2021/12/17 03:10:04;;;;;;;6.25;2.72;;;33.40;78.20;;;;;;4997213;28;20084;-70
2021/12/17 03:12:44;;;;;;;7.50;2.88;;;33.70;74.70;;;;;;5002865;28;20479;-75
2021/12/17 03:15:33;;;;;;;5.88;2.85;;;33.80;71.90;;;;;;5008043;28;20062;-69
2021/12/17 03:26:03;;;;;;;4.65;2.40;;;32.20;71.90;;;;;;5005552;28;20035;-69
2021/12/17 03:28:32;;;;;;;4.35;3.10;;;32.10;72.60;;;;;;5005351;28;20554;-67
2021/12/17 03:31:01;;;;;;;5.07;3.00;;;32.70;71.80;;;;;;5004675;28;20112;-69
2021/12/17 03:33:28;;;;;;;8.18;3.40;;;32.20;71.70;;;;;;5008376;28;20038;-68
2021/12/17 03:35:58;;;;;;;6.30;2.80;;;31.90;70.10;;;;;;5006156;28;20377;-69
2021/12/17 03:38:26;;;;;;;5.50;2.88;;;31.20;74.30;;;;;;4991137;28;20101;-73
2021/12/17 03:41:05;;;;;;;4.85;3.00;;;31.50;74.50;;;;;;5009855;28;20039;-68
2021/12/17 03:43:33;;;;;;;5.63;3.13;;;32.10;75.40;;;;;;5011983;28;20549;-76
2021/12/17 03:46:00;;;;;;;10.02;4.30;;;31.90;74.10;;;;;;5008122;28;20113;-69
2021/12/17 03:48:31;;;;;;;4.47;3.30;;;31.70;74.00;;;;;;5013670;28;20031;-69
2021/12/17 03:50:58;;;;;;;5.40;3.25;;;31.40;73.40;;;;;;5009669;28;20078;-67
2021/12/17 03:53:25;;;;;;;7.38;3.88;;;31.10;75.30;;;;;;5011414;28;20049;-75
2021/12/17 03:55:52;;;;;;;6.32;3.40;;;31.20;74.00;;;;;;5015754;28;20421;-71
2021/12/17 03:58:19;;;;;;;4.30;3.05;;;32.10;73.60;;;;;;5015011;28;20037;-69
2021/12/17 04:00:47;;;;;;;7.88;5.15;;;32.90;68.40;;;;;;5012474;28;20167;-70
2021/12/17 04:03:14;;;;;;;5.50;3.97;;;33.30;69.20;;;;;;5011857;28;20488;-68
2021/12/17 04:05:42;;;;;;;6.38;4.93;;;33.70;68.90;;;;;;5013856;28;20039;-66
2021/12/17 04:08:09;;;;;;;8.35;6.20;;;34.00;65.90;;;;;;5010374;28;20017;-69
2021/12/17 04:10:43;;;;;;;5.57;3.83;;;34.70;65.20;;;;;;5013826;28;20036;-72
2021/12/17 04:16:07;;;;;;;6.43;3.75;;;35.00;59.50;;;;;;5011045;28;20041;-70
2021/12/17 04:18:36;;;;;;;7.47;4.00;;;34.00;60.40;;;;;;5009658;28;20195;-74
2021/12/17 04:21:09;;;;;;;5.32;3.92;;;33.60;65.60;;;;;;5008927;28;20031;-67
2021/12/17 04:23:36;;;;;;;5.30;4.30;;;33.90;65.50;;;;;;5010504;28;20025;-67
2021/12/17 04:26:04;;;;;;;9.05;4.75;;;34.30;65.50;;;;;;5013893;28;20038;-73
2021/12/17 04:28:31;;;;;;;5.57;3.90;;;34.30;61.50;;;;;;5009992;28;20017;-71
2021/12/17 04:30:58;;;;;;;5.68;3.72;;;34.60;62.30;;;;;;5015299;28;20183;-68
2021/12/17 04:33:25;;;;;;;6.45;4.22;;;34.70;64.10;;;;;;5015913;28;20037;-72
2021/12/17 04:35:51;;;;;;;5.40;4.22;;;34.70;62.60;;;;;;5012407;28;20040;-71
2021/12/17 04:38:21;;;;;;;6.38;4.85;;;34.10;60.60;;;;;;5008833;28;20028;-67
2021/12/17 04:40:50;;;;;;;4.30;3.83;;;33.30;62.00;;;;;;5010499;28;20035;-67
2021/12/17 04:43:38;;;;;;;8.05;4.00;;;33.40;61.60;;;;;;5029491;28;20473;-71
2021/12/17 04:46:21;;;;;;;5.45;4.47;;;33.90;60.50;;;;;;5015259;28;20045;-68
2021/12/17 04:59:49;;;;;;;5.75;3.90;;;33.60;61.50;;;;;;5009635;28;20031;-68
2021/12/17 05:02:17;;;;;;;7.97;4.10;;;33.20;64.00;;;;;;5010482;28;20039;-66
2021/12/17 05:04:45;;;;;;;9.32;4.97;;;32.90;65.10;;;;;;5010424;28;20299;-65
2021/12/17 05:07:16;;;;;;;6.05;3.40;;;32.20;67.40;;;;;;5008776;28;20057;-70
2021/12/17 05:09:52;;;;;;;8.95;4.18;;;31.70;69.20;;;;;;5010738;28;20118;-72
2021/12/17 05:20:48;;;;;;;6.63;3.47;;;33.90;62.70;;;;;;5007125;28;20224;-70
2021/12/17 05:23:16;;;;;;;8.20;3.63;;;34.10;63.20;;;;;;5008347;28;20607;-68
2021/12/17 05:25:43;;;;;;;8.50;4.07;;;33.80;63.30;;;;;;5008139;28;20505;-70
2021/12/17 05:28:10;;;;;;;5.13;3.33;;;33.50;63.70;;;;;;5008962;28;20480;-67
2021/12/17 05:30:40;;;;;;;5.43;3.25;;;32.90;65.00;;;;;;5007958;28;20048;-70
2021/12/17 05:33:07;;;;;;;5.97;3.58;;;32.20;66.30;;;;;;5000805;28;20051;-68
2021/12/17 05:35:34;;;;;;;7.57;3.90;;;31.80;67.90;;;;;;5025608;28;20564;-68
2021/12/17 05:38:01;;;;;;;6.28;3.83;;;31.40;69.50;;;;;;5004948;28;20031;-67
2021/12/17 05:40:28;;;;;;;6.85;4.07;;;31.10;70.10;;;;;;5025378;28;20100;-67
2021/12/17 05:42:59;;;;;;;5.38;3.78;;;31.20;69.80;;;;;;5007698;28;20121;-67
2021/12/17 05:45:48;;;;;;;6.90;3.95;;;31.90;70.70;;;;;;5007752;23;20074;-67
2021/12/17 05:48:23;;;;;;;6.97;3.90;;;32.80;65.50;;;;;;5006950;28;20074;-67
2021/12/17 05:50:56;;;;;;;9.35;3.90;;;33.70;66.50;;;;;;5009528;28;20047;-69
2021/12/17 05:53:24;;;;;;;6.30;3.13;;;34.00;65.80;;;;;;5010247;28;20103;-66
2021/12/17 05:55:52;;;;;;;6.25;3.55;;;34.60;64.20;;;;;;5010208;28;20522;-67
2021/12/17 05:58:19;;;;;;;8.30;3.97;;;34.90;63.70;;;;;;5007690;28;20032;-67
2021/12/17 06:00:47;;;;;;;5.95;3.00;;;35.10;62.40;;;;;;5010932;28;21160;-66
2021/12/17 06:03:14;;;;;;;4.72;3.25;;;35.50;61.30;;;;;;5009845;28;20491;-67
2021/12/17 06:05:41;;;;;;;7.32;3.42;;;36.00;60.20;;;;;;5008855;28;20027;-67
2021/12/17 06:08:08;;;;;;;7.22;4.22;;;36.50;59.50;;;;;;5010542;28;20030;-67
2021/12/17 06:10:36;;;;;;;8.15;4.53;;;36.70;56.90;;;;;;5021219;28;20024;-66
2021/12/17 06:13:03;;;;;;;7.70;4.03;;;37.10;57.00;;;;;;5009937;28;20041;-68
2021/12/17 06:15:30;;;;;;;8.60;5.15;;;36.70;55.90;;;;;;5009901;28;20070;-68
2021/12/17 06:17:57;;;;;;;5.70;4.05;;;36.20;55.20;;;;;;5005767;28;20027;-69
2021/12/17 06:20:25;;;;;;;7.10;3.67;;;35.80;56.20;;;;;;5008656;28;20038;-72
2021/12/17 06:22:52;;;;;;;7.22;3.58;;;36.50;55.60;;;;;;5004169;28;20033;-67
2021/12/17 06:25:20;;;;;;;6.35;3.35;;;36.60;55.70;;;;;;5020809;28;20453;-67
2021/12/17 06:27:47;;;;;;;7.60;3.08;;;36.70;56.10;;;;;;5005828;28;20033;-71
2021/12/17 06:30:16;;;;;;;4.47;3.20;;;37.10;52.90;;;;;;5010837;28;20027;-67
2021/12/17 06:32:43;;;;;;;5.85;3.38;;;37.30;54.40;;;;;;5026255;28;20422;-67
2021/12/17 06:35:11;;;;;;;7.68;3.42;;;37.40;53.00;;;;;;5009702;28;20041;-70
2021/12/17 06:37:40;;;;;;;6.50;3.53;;;37.20;53.20;;;;;;5011435;28;20016;-69
2021/12/17 06:40:08;;;;;;;6.25;3.00;;;36.30;53.80;;;;;;5009817;28;20028;-67
2021/12/17 06:42:35;;;;;;;4.80;2.75;;;35.10;55.10;;;;;;5006129;28;20058;-69
2021/12/17 06:45:09;;;;;;;4.78;3.22;;;34.00;57.40;;;;;;5010723;28;20502;-67
2021/12/17 06:47:37;;;;;;;6.10;2.80;;;33.40;59.20;;;;;;5002945;28;20031;-70
2021/12/17 06:55:42;;;;;;;5.50;2.72;;;31.90;61.90;;;;;;5013555;28;20132;-66
2021/12/17 07:06:19;;;;;;;6.25;2.97;;;31.70;62.80;;;;;;5011632;28;20034;-66
2021/12/17 07:11:36;;;;;;;6.88;2.72;;;30.30;66.90;;;;;;5011009;28;20089;-69
2021/12/17 07:32:40;;;;;;;5.20;2.67;;;28.60;75.50;;;;;;5012280;28;20032;-66
2021/12/17 07:40:09;;;;;;;5.40;2.88;;;28.30;78.20;;;;;;5013641;28;20030;-65
2021/12/17 07:42:36;;;;;;;4.68;2.75;;;28.10;79.20;;;;;;5012293;28;20056;-67
2021/12/17 07:45:05;;;;;;;8.60;6.95;;;27.80;80.90;;;;;;5013910;28;20051;-71
2021/12/17 07:47:32;;;;;;;8.73;3.42;;;27.70;83.10;;;;;;5023804;28;20057;-70
2021/12/17 07:49:59;;;;;;;6.88;2.95;;;27.50;83.60;;;;;;5027464;28;20139;-71
2021/12/17 07:52:25;;;;;;;7.32;3.35;;;27.20;85.40;;;;;;5017152;28;20052;-66
2021/12/17 07:54:52;;;;;;;7.15;2.70;;;27.10;86.70;;;;;;5010282;28;20550;-65
2021/12/17 07:57:19;;;;;;;6.63;3.05;;;27.10;87.20;;;;;;5031538;28;20126;-65
2021/12/17 07:59:46;;;;;;;8.07;3.15;;;26.90;88.70;;;;;;5015465;28;20028;-70
2021/12/17 08:02:13;;;;;;;3.47;2.53;;;26.70;90.00;;;;;;5011327;28;20027;-67
2021/12/17 08:04:40;;;;;;;5.43;2.65;;;26.60;90.40;;;;;;5023861;28;20023;-72
2021/12/17 08:07:07;;;;;;;4.30;2.72;;;26.30;91.50;;;;;;5011840;28;20560;-66
2021/12/17 08:09:35;;;;;;;7.57;2.47;;;26.30;92.10;;;;;;5012222;28;20036;-67
2021/12/17 08:12:02;;;;;;;6.00;3.03;;;26.10;92.30;;;;;;5007363;28;20481;-67
2021/12/17 08:14:30;;;;;;;9.02;3.63;;;26.00;92.60;;;;;;5015067;28;20135;-72
2021/12/17 08:17:41;;;;;;;6.05;2.88;;;26.00;93.10;;;;;;5017470;28;20541;-70
2021/12/17 08:25:16;;;;;;;9.23;2.80;;;25.50;95.00;;;;;;5006451;28;20587;-64
2021/12/17 08:32:42;;;;;;;6.43;2.88;;;25.10;96.80;;;;;;5005447;28;20031;-65
2021/12/17 08:35:10;;;;;;;7.53;2.88;;;24.80;97.70;;;;;;5008289;28;20040;-65
2021/12/17 08:37:38;;;;;;;10.60;3.25;;;24.80;98.20;;;;;;5005923;28;20865;-65
2021/12/17 08:40:07;;;;;;;6.53;3.50;;;24.50;98.90;;;;;;5007238;28;20053;-70
2021/12/17 08:42:35;;;;;;;7.85;2.70;;;24.50;99.40;;;;;;5011166;28;20071;-66
2021/12/17 08:45:06;;;;;;;5.90;3.08;;;24.40;99.90;;;;;;5009521;28;20046;-70
2021/12/17 08:47:36;;;;;;;8.00;2.83;;;24.20;99.90;;;;;;5010074;28;20027;-64
2021/12/17 08:50:07;;;;;;;7.47;2.53;;;24.20;99.90;;;;;;5009233;28;20081;-70
2021/12/17 08:52:34;;;;;;;6.95;2.55;;;24.10;99.90;;;;;;5009355;28;20521;-70
2021/12/17 08:55:03;;;;;;;7.32;2.38;;;24.00;99.90;;;;;;5008575;28;20063;-66
2021/12/17 08:57:31;;;;;;;7.40;2.50;;;23.90;99.90;;;;;;5008263;28;20556;-68
2021/12/17 09:00:04;;;;;;;7.63;2.30;;;23.90;99.90;;;;;;5010736;28;20029;-64
2021/12/17 09:02:33;;;;;;;9.80;2.80;;;23.80;99.90;;;;;;5024315;28;20116;-70
2021/12/17 09:05:01;;;;;;;7.47;2.72;;;23.80;99.90;;;;;;4961433;28;20027;-70
2021/12/17 09:07:28;;;;;;;10.07;2.80;;;23.80;99.90;;;;;;4980136;28;20032;-68
2021/12/17 09:09:55;;;;;;;4.82;3.03;;;23.60;99.90;;;;;;4975420;28;20042;-64
2021/12/17 09:12:23;;;;;;;8.35;7.10;;;23.50;99.90;;;;;;4989175;28;20083;-65
2021/12/17 09:14:50;;;;;;;8.30;3.50;;;23.40;99.90;;;;;;4962598;28;20634;-72
2021/12/17 09:17:19;;;;;;;8.25;2.83;;;23.20;99.90;;;;;;4962562;28;20034;-63
2021/12/17 09:19:46;;;;;;;8.40;2.50;;;23.10;99.90;;;;;;4962577;28;20552;-69
2021/12/17 09:22:13;;;;;;;11.57;3.90;;;23.00;99.90;;;;;;4961033;28;20023;-72
2021/12/17 09:24:40;;;;;;;7.57;4.00;;;22.80;99.90;;;;;;4969898;28;20506;-67
2021/12/17 09:27:07;;;;;;;7.05;2.85;;;22.70;99.90;;;;;;4958781;28;20030;-66
2021/12/17 09:29:35;;;;;;;8.32;3.17;;;22.80;99.90;;;;;;4957367;28;20022;-67
2021/12/17 09:32:03;;;;;;;8.68;3.05;;;22.70;99.90;;;;;;4957272;28;20710;-70
2021/12/17 09:34:30;;;;;;;8.65;3.92;;;22.70;99.90;;;;;;4960856;28;20449;-69
2021/12/17 09:36:58;;;;;;;8.23;3.60;;;22.50;99.90;;;;;;4969911;28;20035;-70
2021/12/17 09:39:25;;;;;;;6.15;2.95;;;22.40;99.90;;;;;;4958058;28;20066;-71
2021/12/17 09:41:55;;;;;;;6.05;2.75;;;22.50;99.90;;;;;;4959583;28;20031;-76
2021/12/17 09:44:23;;;;;;;10.80;3.97;;;22.40;99.90;;;;;;4958796;28;20425;-75
2021/12/17 09:46:51;;;;;;;8.65;3.35;;;22.50;99.90;;;;;;4958301;28;20325;-69
2021/12/17 09:49:22;;;;;;;8.55;2.70;;;22.50;99.90;;;;;;4959302;28;20039;-70
2021/12/17 09:51:50;;;;;;;8.23;2.80;;;22.40;99.90;;;;;;4961216;28;20125;-75
2021/12/17 09:54:18;;;;;;;7.43;2.35;;;22.30;99.90;;;;;;4960123;28;20026;-74
2021/12/17 09:56:46;;;;;;;5.90;2.70;;;22.30;99.90;;;;;;4958544;28;20031;-73
2021/12/17 09:59:15;;;;;;;7.47;2.90;;;22.30;99.90;;;;;;4957638;28;20471;-68
2021/12/17 10:01:44;;;;;;;12.25;4.00;;;22.20;99.90;;;;;;4959724;28;20054;-71
2021/12/17 10:04:27;;;;;;;6.93;2.45;;;22.20;99.90;;;;;;4962422;28;20033;-68
2021/12/17 10:07:14;;;;;;;7.85;2.55;;;22.10;99.90;;;;;;4960701;28;20023;-69
2021/12/17 10:09:50;;;;;;;7.60;2.20;;;22.20;99.90;;;;;;4966183;28;20039;-69
2021/12/17 10:12:27;;;;;;;9.70;3.08;;;22.00;99.90;;;;;;4986203;28;20034;-69
2021/12/17 10:15:10;;;;;;;7.97;2.83;;;22.00;99.90;;;;;;4977947;28;20053;-72
2021/12/17 10:17:57;;;;;;;10.30;2.58;;;22.00;99.90;;;;;;4977865;28;20065;-68
2021/12/17 10:20:26;;;;;;;6.78;2.58;;;22.00;99.90;;;;;;4959523;28;20068;-67
2021/12/17 10:23:00;;;;;;;5.28;2.60;;;22.00;99.90;;;;;;4961389;28;20035;-72
2021/12/17 10:25:29;;;;;;;8.02;4.05;;;22.00;99.90;;;;;;4959133;28;20726;-73
2021/12/17 10:27:59;;;;;;;7.18;3.13;;;22.00;99.90;;;;;;4957346;28;20069;-67
2021/12/17 10:30:29;;;;;;;5.88;2.40;;;22.00;99.90;;;;;;4959153;28;20023;-66
2021/12/17 10:32:59;;;;;;;5.50;2.72;;;22.00;99.90;;;;;;4958668;28;20030;-68
2021/12/17 10:35:30;;;;;;;9.40;3.42;;;22.00;99.90;;;;;;4957765;28;20022;-68
2021/12/17 10:38:03;;;;;;;6.03;2.60;;;22.00;99.90;;;;;;4961758;28;20027;-69
2021/12/17 10:40:34;;;;;;;;;;;21.90;99.90;;;;;;4963045;28;20113;-67
2021/12/17 10:43:32;;;;;;;8.90;2.63;;;22.00;99.90;;;;;;4971309;28;20092;-76
2021/12/17 10:46:08;;;;;;;6.03;2.42;;;22.10;99.90;;;;;;4965362;28;20102;-68
2021/12/17 10:54:13;;;;;;;6.22;2.78;;;21.80;99.90;;;;;;4962577;28;20023;-66
2021/12/17 10:56:44;;;;;;;5.53;2.90;;;21.70;99.90;;;;;;4965829;28;20073;-66
2021/12/17 10:59:20;;;;;;;8.70;2.88;;;21.60;99.90;;;;;;4965697;28;20487;-71
2021/12/17 11:01:54;;;;;;;6.65;2.63;;;21.50;99.90;;;;;;4963022;28;20496;-68
2021/12/17 11:04:27;;;;;;;6.10;2.33;;;21.50;99.90;;;;;;4985292;28;20019;-69
2021/12/17 11:07:03;;;;;;;8.85;2.40;;;21.40;99.90;;;;;;4973220;28;20035;-68
2021/12/17 11:09:42;;;;;;;8.27;4.00;;;21.30;99.90;;;;;;4964374;28;20114;-69
2021/12/17 11:12:17;;;;;;;10.60;3.03;;;21.30;99.90;;;;;;4970334;28;20034;-69
2021/12/17 11:14:46;;;;;;;9.45;2.95;;;21.30;99.90;;;;;;4965361;28;20068;-68
2021/12/17 11:17:16;;;;;;;8.88;3.22;;;21.30;99.90;;;;;;4964499;28;20042;-68
2021/12/17 11:19:43;;;;;;;8.95;3.60;;;21.40;99.90;;;;;;4964366;28;20026;-68
2021/12/17 11:22:10;;;;;;;9.25;3.15;;;21.30;99.90;;;;;;4965514;28;20060;-71
2021/12/17 11:24:38;;;;;;;7.60;2.50;;;21.30;99.90;;;;;;4965551;28;20114;-72
2021/12/17 11:27:06;;;;;;;6.45;2.90;;;21.20;99.90;;;;;;4964806;28;20062;-72
2021/12/17 11:29:34;;;;;;;12.23;2.72;;;21.20;99.90;;;;;;4964965;28;20053;-75
2021/12/17 11:32:06;;;;;;;7.18;2.55;;;21.10;99.90;;;;;;4962481;28;20027;-75
2021/12/17 11:34:34;;;;;;;7.40;2.63;;;21.10;99.90;;;;;;4965592;28;20023;-68
2021/12/17 11:37:04;;;;;;;8.60;2.70;;;21.00;99.90;;;;;;4965519;28;20446;-72
2021/12/17 11:39:40;;;;;;;10.93;2.83;;;21.10;99.90;;;;;;4964997;28;20042;-72
2021/12/17 11:42:18;;;;;;;4.57;2.13;;;21.00;99.90;;;;;;4965470;28;20031;-70
2021/12/17 11:45:22;;;;;;;6.80;2.45;;;20.90;99.90;;;;;;4964201;28;20548;-69
2021/12/17 11:47:41;;;;;;;7.40;2.60;;;20.80;99.90;;;;;;4961609;28;20042;-69
2021/12/17 11:50:11;;;;;;;6.50;2.55;;;20.80;99.90;;;;;;4963366;28;20019;-73
2021/12/17 11:52:56;;;;;;;7.53;2.55;;;20.80;99.90;;;;;;4964887;28;20027;-67
2021/12/17 11:55:36;;;;;;;6.97;2.67;;;20.80;99.90;;;;;;4964912;28;20035;-69
2021/12/17 11:58:08;;;;;;;5.18;2.42;;;20.80;99.90;;;;;;4965589;28;20057;-68
2021/12/17 12:00:41;;;;;;;8.27;2.75;;;20.80;99.90;;;;;;4965971;28;20076;-71
2021/12/17 12:03:16;;;;;;;6.40;2.42;;;20.70;99.90;;;;;;4967064;28;20552;-68
2021/12/17 12:05:49;;;;;;;8.45;2.90;;;20.60;99.90;;;;;;4965584;28;20042;-72
2021/12/17 12:08:30;;;;;;;6.70;2.83;;;20.60;99.90;;;;;;4961743;28;20049;-70
2021/12/17 12:11:22;;;;;;;9.55;3.17;;;20.60;99.90;;;;;;4966474;28;20559;-73
2021/12/17 12:13:55;;;;;;;7.38;3.38;;;20.50;99.90;;;;;;4962073;28;20035;-73
2021/12/17 12:16:30;;;;;;;6.45;3.15;;;20.50;99.90;;;;;;4966096;28;20038;-71
2021/12/17 12:19:08;;;;;;;7.75;2.80;;;20.50;99.90;;;;;;4967784;28;20080;-70
2021/12/17 12:21:42;;;;;;;10.82;2.72;;;20.40;99.90;;;;;;4967269;28;21139;-70
2021/12/17 12:24:10;;;;;;;9.82;3.50;;;20.40;99.90;;;;;;4970719;28;20410;-69
2021/12/17 12:26:47;;;;;;;7.07;2.75;;;20.30;99.90;;;;;;4967091;28;20477;-69
2021/12/17 12:29:23;;;;;;;7.05;2.33;;;20.30;99.90;;;;;;4962232;28;20098;-70
2021/12/17 12:31:55;;;;;;;6.65;2.55;;;20.30;99.90;;;;;;4964195;28;20058;-70
2021/12/17 12:34:32;;;;;;;8.60;2.60;;;20.30;99.90;;;;;;4968583;28;20027;-68
2021/12/17 12:37:04;;;;;;;9.65;2.97;;;20.30;99.90;;;;;;4967134;28;20059;-69
2021/12/17 12:39:53;;;;;;;7.75;2.80;;;20.20;99.90;;;;;;4967116;28;20505;-69
2021/12/17 12:42:30;;;;;;;8.48;2.70;;;20.10;99.90;;;;;;4964151;28;20467;-73
2021/12/17 12:44:57;;;;;;;6.72;2.88;;;20.10;99.90;;;;;;4966395;28;20054;-70
2021/12/17 12:47:29;;;;;;;12.23;2.78;;;20.10;99.90;;;;;;5002817;28;20056;-73
2021/12/17 12:50:15;;;;;;;9.50;2.78;;;20.20;99.90;;;;;;4967110;28;20028;-75
2021/12/17 12:53:05;;;;;;;9.40;3.05;;;20.20;99.90;;;;;;4966927;28;20030;-73
2021/12/17 12:55:45;;;;;;;5.40;3.28;;;20.20;99.90;;;;;;4967867;28;20031;-70
2021/12/17 12:58:14;;;;;;;9.98;3.22;;;20.10;99.90;;;;;;4969823;28;20070;-71
2021/12/17 13:00:44;;;;;;;7.32;2.47;;;20.10;99.90;;;;;;4967471;28;20793;-71
2021/12/17 13:03:14;;;;;;;8.88;3.42;;;20.10;99.90;;;;;;4968581;28;20479;-68
2021/12/17 13:05:44;;;;;;;10.98;2.60;;;20.10;99.90;;;;;;4969998;28;20019;-68
2021/12/17 13:08:14;;;;;;;7.43;3.13;;;20.00;99.90;;;;;;4969046;28;20502;-68
2021/12/17 13:10:44;;;;;;;7.15;3.35;;;19.90;99.90;;;;;;4970904;28;20076;-71
2021/12/17 13:13:21;;;;;;;9.65;3.00;;;19.90;99.90;;;;;;4969101;28;20018;-69
2021/12/17 13:24:13;;;;;;;6.90;3.03;;;20.00;99.90;;;;;;4967509;28;20027;-70
2021/12/17 13:26:53;;;;;;;6.25;2.88;;;19.90;99.90;;;;;;4963433;28;20035;-70
2021/12/17 13:29:33;;;;;;;10.38;3.35;;;19.80;99.90;;;;;;4963746;28;20497;-69
2021/12/17 13:32:09;;;;;;;6.32;2.80;;;19.80;99.90;;;;;;4961473;28;20023;-68
2021/12/17 13:34:37;;;;;;;7.30;2.97;;;19.70;99.90;;;;;;4968518;28;20402;-68
2021/12/17 13:37:12;;;;;;;6.05;3.10;;;19.70;99.90;;;;;;4968554;28;20559;-71
2021/12/17 13:39:54;;;;;;;7.20;2.78;;;19.60;99.90;;;;;;4968254;28;20042;-72
2021/12/17 13:42:30;;;;;;;7.38;2.47;;;19.60;99.90;;;;;;4968868;28;20023;-70
2021/12/17 13:44:58;;;;;;;8.63;3.40;;;19.60;99.90;;;;;;4967985;28;20057;-71
2021/12/17 13:47:34;;;;;;;10.40;3.00;;;19.60;99.90;;;;;;4967085;28;20038;-70
2021/12/17 13:50:19;;;;;;;8.45;3.25;;;19.60;99.90;;;;;;4968883;28;20034;-71
2021/12/17 13:53:23;;;;;;;6.85;2.78;;;19.60;99.90;;;;;;4967594;28;20180;-68
2021/12/17 13:55:51;;;;;;;8.32;3.03;;;19.50;99.90;;;;;;4969198;28;20114;-69
2021/12/17 13:58:23;;;;;;;8.52;2.85;;;19.40;99.90;;;;;;4968441;28;20039;-71
2021/12/17 14:00:56;;;;;;;8.50;2.72;;;19.40;99.90;;;;;;4968360;28;20080;-71
2021/12/17 14:03:32;;;;;;;7.80;2.50;;;19.40;99.90;;;;;;4967984;28;20390;-72
2021/12/17 14:06:16;;;;;;;9.23;3.83;;;19.40;99.90;;;;;;4968434;28;20034;-73
2021/12/17 14:08:44;;;;;;;8.23;2.75;;;19.30;99.90;;;;;;4967654;28;20038;-72
2021/12/17 14:11:32;;;;;;;5.72;2.80;;;19.30;99.90;;;;;;4965719;28;20034;-72
2021/12/17 14:14:03;;;;;;;10.45;3.90;;;19.30;99.90;;;;;;4963316;28;20108;-71
2021/12/17 14:16:34;;;;;;;11.48;3.33;;;19.30;99.90;;;;;;4968272;28;20054;-72
2021/12/17 14:19:02;;;;;;;8.63;3.20;;;19.30;99.90;;;;;;4967761;28;20030;-72
2021/12/17 14:21:31;;;;;;;8.82;3.00;;;19.20;99.90;;;;;;4983900;28;20039;-72
2021/12/17 14:23:59;;;;;;;7.72;3.05;;;19.20;99.90;;;;;;5013395;28;20030;-71
2021/12/17 14:26:31;;;;;;;8.88;3.33;;;19.20;99.90;;;;;;5013337;28;20119;-72
2021/12/17 14:29:13;;;;;;;10.82;3.40;;;19.10;99.90;;;;;;5011064;28;20108;-68
2021/12/17 14:31:40;;;;;;;13.00;3.15;;;19.10;99.90;;;;;;5016024;28;20054;-68
2021/12/17 14:34:09;;;;;;;6.80;2.75;;;19.20;99.90;;;;;;5011520;28;20045;-72
2021/12/17 14:36:41;;;;;;;6.60;3.38;;;19.10;99.90;;;;;;5011568;28;20508;-68
2021/12/17 14:39:14;;;;;;;8.55;3.50;;;19.00;99.90;;;;;;4960683;28;20027;-68
2021/12/17 14:41:57;;;;;;;10.13;3.25;;;19.00;99.90;;;;;;4965318;28;20035;-68
2021/12/17 14:47:17;;;;;;;10.10;3.33;;;18.90;99.90;;;;;;4967459;28;20854;-71
2021/12/17 15:01:14;;;;;;;10.60;3.38;;;19.00;99.90;;;;;;4965788;28;20609;-68
2021/12/17 15:03:42;;;;;;;6.25;3.00;;;18.90;99.90;;;;;;4959824;28;20544;-68
2021/12/17 15:06:16;;;;;;;10.75;3.50;;;18.90;99.90;;;;;;4966715;28;20035;-72
2021/12/17 15:08:45;;;;;;;10.57;3.42;;;18.90;99.90;;;;;;4967350;28;20478;-68
2021/12/17 15:11:27;;;;;;;6.75;3.05;;;18.90;99.90;;;;;;4966851;28;20035;-72
2021/12/17 15:13:54;;;;;;;8.02;3.20;;;18.80;99.90;;;;;;4967769;28;20033;-72
2021/12/17 15:16:21;;;;;;;7.60;3.25;;;18.70;99.90;;;;;;4965354;28;20475;-70
2021/12/17 15:18:48;;;;;;;10.18;3.67;;;18.80;99.90;;;;;;4967831;28;20045;-72
2021/12/17 15:21:15;;;;;;;5.95;3.00;;;18.70;99.90;;;;;;4967046;28;20492;-73
2021/12/17 15:23:42;;;;;;;8.70;3.08;;;18.70;99.90;;;;;;4969727;28;20096;-73
2021/12/17 15:26:09;;;;;;;11.02;2.83;;;18.60;99.90;;;;;;4970276;28;20030;-72
2021/12/17 15:28:36;;;;;;;6.47;3.47;;;18.60;99.90;;;;;;4969732;28;20115;-72
2021/12/17 15:31:06;;;;;;;6.50;3.13;;;18.60;99.90;;;;;;4969073;28;20027;-72
2021/12/17 15:33:34;;;;;;;5.63;3.10;;;18.60;99.90;;;;;;4963873;28;20034;-68
2021/12/17 15:36:01;;;;;;;7.00;3.72;;;18.70;99.90;;;;;;4969819;28;20023;-67
2021/12/17 15:38:28;;;;;;;9.60;3.50;;;18.70;99.90;;;;;;4968500;28;20037;-70
2021/12/17 15:40:55;;;;;;;7.72;3.55;;;18.60;99.90;;;;;;4970259;28;20102;-70
2021/12/17 15:43:22;;;;;;;9.40;3.13;;;18.50;99.90;;;;;;4970483;28;20030;-71
2021/12/17 15:45:51;;;;;;;9.30;3.47;;;18.50;99.90;;;;;;4969899;28;20076;-68
2021/12/17 15:48:21;;;;;;;6.55;2.80;;;18.40;99.90;;;;;;4970392;28;20037;-71
2021/12/17 15:50:48;;;;;;;5.55;3.47;;;18.40;99.90;;;;;;4970282;28;20027;-71
2021/12/17 15:53:15;;;;;;;7.57;2.95;;;18.30;99.90;;;;;;4968812;28;20442;-72
2021/12/17 15:55:43;;;;;;;6.05;3.50;;;18.30;99.90;;;;;;4970142;28;20027;-71
2021/12/17 15:58:10;;;;;;;10.63;4.05;;;18.30;99.90;;;;;;4970135;28;20705;-71
2021/12/17 16:00:38;;;;;;;7.05;3.10;;;18.30;99.90;;;;;;4969664;28;20031;-71
2021/12/17 16:03:10;;;;;;;9.05;3.03;;;18.30;99.90;;;;;;4970342;28;20023;-69
2021/12/17 16:05:38;;;;;;;14.43;3.67;;;18.30;99.90;;;;;;4969885;28;20414;-71
2021/12/17 16:08:05;;;;;;;10.10;3.05;;;18.30;99.90;;;;;;4970076;28;20143;-69
2021/12/17 16:21:36;;;;;;;7.72;3.33;;;18.30;99.90;;;;;;4950458;28;20046;-71
2021/12/17 16:24:03;;;;;;;8.98;3.13;;;18.30;99.90;;;;;;4969484;28;20015;-68
2021/12/17 16:26:31;;;;;;;6.90;3.58;;;18.20;99.90;;;;;;4969469;28;20450;-68
2021/12/17 16:28:58;;;;;;;7.20;3.78;;;18.20;99.90;;;;;;4963390;28;20045;-72
2021/12/17 16:31:27;;;;;;;9.43;4.03;;;18.20;99.90;;;;;;4967996;28;20050;-70
2021/12/17 16:34:01;;;;;;;7.45;3.58;;;18.20;99.90;;;;;;4968801;28;20118;-70
2021/12/17 16:36:30;;;;;;;9.25;4.20;;;18.10;99.90;;;;;;4969290;28;20042;-67